createdAt,value
2022-10-17T00:00:43.790Z,100.00
2022-10-17T00:03:06.185Z,100.00
2022-10-17T00:05:28.619Z,100.00
2022-10-17T00:07:51.857Z,100.00
2022-10-17T00:10:14.269Z,100.00
2022-10-17T00:12:36.603Z,100.00
2022-10-17T00:14:59.015Z,100.00
2022-10-17T00:17:21.411Z,100.00
2022-10-17T00:19:43.771Z,100.00
2022-10-17T00:22:06.167Z,100.00
2022-10-17T00:24:30.670Z,100.00
2022-10-17T00:26:53.112Z,100.00
2022-10-17T00:29:15.489Z,100.00
2022-10-17T00:31:37.994Z,100.00
2022-10-17T00:34:00.412Z,100.00
2022-10-17T00:36:25.047Z,100.00
2022-10-17T00:38:50.142Z,99.34
2022-10-17T00:41:15.849Z,99.82
2022-10-17T00:44:29.016Z,100.00
2022-10-17T00:46:51.496Z,99.92
2022-10-17T00:49:13.906Z,99.28
2022-10-17T00:51:58.055Z,97.51
2022-10-17T00:54:25.554Z,97.31
2022-10-17T00:56:48.119Z,97.27
2022-10-17T00:59:11.583Z,95.48
2022-10-17T01:01:34.491Z,96.17
2022-10-17T01:03:56.850Z,96.39
2022-10-17T01:06:19.310Z,96.86
2022-10-17T01:08:41.769Z,97.49
2022-10-17T01:11:18.915Z,97.52
2022-10-17T01:14:07.333Z,96.78
2022-10-17T01:16:49.118Z,97.15
2022-10-17T01:19:51.898Z,97.20
2022-10-17T01:22:28.053Z,97.15
2022-10-17T01:25:05.490Z,97.84
2022-10-17T01:28:13.299Z,97.31
2022-10-17T01:31:09.940Z,99.09
2022-10-17T01:33:57.350Z,99.68
2022-10-17T01:36:57.578Z,99.19
2022-10-17T01:39:34.445Z,98.71
2022-10-17T01:42:25.056Z,97.96
2022-10-17T01:45:10.934Z,98.40
2022-10-17T01:47:33.796Z,97.64
2022-10-17T01:50:00.179Z,97.25
2022-10-17T01:52:26.945Z,96.51
2022-10-17T01:54:55.861Z,95.95
2022-10-17T01:57:31.847Z,96.26
2022-10-17T01:59:54.877Z,97.53
2022-10-17T02:02:17.301Z,97.28
2022-10-17T02:04:39.848Z,97.28
2022-10-17T02:07:12.556Z,95.68
2022-10-17T02:09:36.113Z,96.33
2022-10-17T02:12:26.394Z,95.65
2022-10-17T02:15:10.707Z,95.70
2022-10-17T02:17:53.024Z,96.24
2022-10-17T02:20:30.337Z,97.60
2022-10-17T02:26:40.688Z,97.12
2022-10-17T02:29:15.722Z,96.14
2022-10-17T02:31:49.797Z,96.40
2022-10-17T02:34:26.216Z,96.34
2022-10-17T02:36:55.901Z,97.02
2022-10-17T02:39:19.034Z,98.04
2022-10-17T02:41:41.536Z,98.07
2022-10-17T02:44:04.019Z,98.44
2022-10-17T02:46:26.377Z,97.67
2022-10-17T02:49:12.248Z,97.31
2022-10-17T02:52:25.516Z,97.70
2022-10-17T02:55:01.560Z,97.12
2022-10-17T02:57:43.587Z,96.44
2022-10-17T03:00:12.093Z,97.25
2022-10-17T03:02:47.755Z,97.03
2022-10-17T03:05:12.717Z,96.20
2022-10-17T03:07:35.137Z,96.49
2022-10-17T03:09:57.554Z,96.95
2022-10-17T03:12:19.975Z,96.05
2022-10-17T03:14:42.431Z,97.96
2022-10-17T03:17:04.758Z,96.34
2022-10-17T03:19:27.182Z,95.84
2022-10-17T03:21:49.960Z,95.99
2022-10-17T03:24:12.362Z,96.22
2022-10-17T03:26:34.751Z,96.66
2022-10-17T03:28:57.242Z,97.12
2022-10-17T03:31:19.670Z,96.93
2022-10-17T03:33:42.130Z,96.17
2022-10-17T03:36:09.346Z,95.77
2022-10-17T03:38:31.764Z,95.83
2022-10-17T03:40:57.284Z,95.60
2022-10-17T03:43:19.651Z,96.25
2022-10-17T03:45:42.033Z,96.29
2022-10-17T03:48:04.815Z,96.39
2022-10-17T03:50:27.200Z,96.32
2022-10-17T03:52:49.704Z,96.41
2022-10-17T03:55:12.064Z,96.39
2022-10-17T03:57:36.767Z,96.00
2022-10-17T03:59:59.202Z,95.70
2022-10-17T04:02:21.585Z,95.42
2022-10-17T04:04:43.984Z,95.44
2022-10-17T04:07:06.316Z,95.99
2022-10-17T04:09:28.767Z,96.60
2022-10-17T04:11:51.146Z,96.41
2022-10-17T04:14:14.457Z,96.10
2022-10-17T04:16:36.762Z,97.89
2022-10-17T04:18:59.838Z,97.33
2022-10-17T04:21:23.673Z,96.67
2022-10-17T04:23:46.084Z,96.58
2022-10-17T04:26:08.486Z,96.89
2022-10-17T04:28:31.232Z,97.32
2022-10-17T04:31:01.773Z,97.79
2022-10-17T04:33:24.157Z,97.58
2022-10-17T04:35:26.412Z,97.48
2022-10-17T04:37:29.681Z,97.17
2022-10-17T04:39:31.908Z,98.89
2022-10-17T04:41:34.223Z,100.00
2022-10-17T04:43:37.347Z,100.00
2022-10-17T04:45:39.583Z,100.00
2022-10-17T04:47:41.739Z,99.74
2022-10-17T04:49:44.011Z,100.00
2022-10-17T04:51:46.245Z,99.33
2022-10-17T04:53:48.447Z,99.22
2022-10-17T04:55:50.708Z,99.34
2022-10-17T04:57:52.892Z,99.27
2022-10-17T04:59:55.182Z,99.69
2022-10-17T05:01:57.394Z,99.57
2022-10-17T05:03:59.670Z,99.70
2022-10-17T05:06:14.177Z,100.00
2022-10-17T05:08:16.328Z,100.00
2022-10-17T05:10:18.585Z,100.00
2022-10-17T05:12:20.776Z,100.00
2022-10-17T05:14:23.005Z,100.00
2022-10-17T05:16:25.700Z,100.00
2022-10-17T05:18:28.811Z,100.00
2022-10-17T05:20:31.108Z,100.00
2022-10-17T05:22:36.038Z,99.85
2022-10-17T05:24:39.318Z,100.00
2022-10-17T05:26:41.496Z,100.00
2022-10-17T05:28:43.739Z,100.00
2022-10-17T05:30:45.930Z,100.00
2022-10-17T05:32:48.158Z,100.00
2022-10-17T05:34:50.362Z,100.00
2022-10-17T05:36:52.544Z,100.00
2022-10-17T05:38:54.727Z,100.00
2022-10-17T05:41:03.621Z,100.00
2022-10-17T05:43:06.062Z,100.00
2022-10-17T05:45:08.773Z,100.00
2022-10-17T05:47:10.897Z,100.00
2022-10-17T05:49:19.748Z,100.00
2022-10-17T05:51:34.380Z,100.00
2022-10-17T05:53:38.243Z,100.00
2022-10-17T05:55:40.411Z,100.00
2022-10-17T05:57:42.593Z,100.00
2022-10-17T05:59:44.774Z,100.00
2022-10-17T06:01:47.008Z,100.00
2022-10-17T06:03:49.240Z,100.00
2022-10-17T06:05:52.497Z,100.00
2022-10-17T06:07:58.159Z,100.00
2022-10-17T06:10:03.610Z,100.00
2022-10-17T06:12:06.277Z,100.00
2022-10-17T06:14:08.705Z,100.00
2022-10-17T06:16:10.885Z,100.00
2022-10-17T06:18:13.036Z,100.00
2022-10-17T06:20:15.281Z,100.00
2022-10-17T06:22:17.544Z,100.00
2022-10-17T06:24:19.878Z,100.00
2022-10-17T06:26:22.180Z,100.00
2022-10-17T06:28:24.421Z,100.00
2022-10-17T06:30:26.677Z,99.94
2022-10-17T06:32:29.076Z,100.00
2022-10-17T06:34:31.533Z,99.79
2022-10-17T06:36:33.706Z,99.92
2022-10-17T06:38:36.160Z,99.73
2022-10-17T06:40:38.375Z,100.00
2022-10-17T06:42:41.209Z,99.81
2022-10-17T06:44:43.373Z,99.71
2022-10-17T06:46:45.563Z,99.65
2022-10-17T06:48:47.727Z,99.59
2022-10-17T06:50:49.925Z,99.36
2022-10-17T06:52:52.373Z,99.36
2022-10-17T06:54:54.684Z,99.56
2022-10-17T06:56:56.928Z,99.21
2022-10-17T06:58:59.211Z,99.10
2022-10-17T07:01:04.461Z,99.46
2022-10-17T07:03:06.762Z,99.33
2022-10-17T07:05:09.108Z,99.25
2022-10-17T07:07:11.270Z,98.69
2022-10-17T07:09:13.505Z,99.09
2022-10-17T07:11:18.423Z,98.75
2022-10-17T07:13:20.879Z,98.53
2022-10-17T07:15:23.079Z,98.79
2022-10-17T07:17:25.512Z,98.13
2022-10-17T07:19:27.698Z,98.93
2022-10-17T07:21:30.060Z,98.38
2022-10-17T07:23:34.360Z,98.39
2022-10-17T07:25:40.026Z,98.52
2022-10-17T07:27:42.564Z,98.00
2022-10-17T07:29:44.727Z,98.42
2022-10-17T07:31:48.889Z,98.30
2022-10-17T07:33:51.321Z,98.35
2022-10-17T07:35:53.619Z,98.54
2022-10-17T07:37:55.811Z,98.06
2022-10-17T07:39:58.136Z,97.40
2022-10-17T07:42:00.346Z,97.33
2022-10-17T07:44:02.559Z,97.32
2022-10-17T07:46:05.860Z,96.95
2022-10-17T07:48:08.089Z,96.63
2022-10-17T07:50:10.509Z,96.21
2022-10-17T07:52:13.758Z,95.99
2022-10-17T07:54:15.936Z,95.75
2022-10-17T07:56:18.230Z,95.58
2022-10-17T07:58:20.473Z,95.57
2022-10-17T08:00:22.693Z,95.48
2022-10-17T08:02:26.377Z,95.39
2022-10-17T08:04:28.767Z,94.45
2022-10-17T08:06:32.201Z,94.77
2022-10-17T08:08:34.610Z,94.28
2022-10-17T08:10:37.302Z,94.11
2022-10-17T08:12:39.805Z,93.72
2022-10-17T08:14:42.938Z,93.66
2022-10-17T08:16:45.552Z,92.72
2022-10-17T08:18:47.877Z,92.41
2022-10-17T08:20:50.410Z,92.31
2022-10-17T08:22:54.503Z,91.69
2022-10-17T08:24:56.706Z,91.75
2022-10-17T08:27:00.665Z,90.98
2022-10-17T08:29:03.038Z,89.24
2022-10-17T08:31:07.861Z,90.40
2022-10-17T08:33:10.408Z,90.09
2022-10-17T08:35:14.860Z,88.32
2022-10-17T08:37:20.256Z,88.44
2022-10-17T08:39:22.617Z,89.00
2022-10-17T08:41:52.445Z,87.55
2022-10-17T08:44:25.926Z,86.59
2022-10-17T08:46:34.105Z,85.98
2022-10-17T08:48:46.410Z,84.98
2022-10-17T08:51:21.448Z,85.20
2022-10-17T08:53:40.388Z,84.07
2022-10-17T08:55:50.804Z,81.97
2022-10-17T08:57:52.987Z,84.11
2022-10-17T08:59:55.396Z,83.05
2022-10-17T09:02:03.006Z,83.07
2022-10-17T09:04:33.754Z,80.45
2022-10-17T09:06:44.495Z,80.54
2022-10-17T09:09:04.934Z,78.14
2022-10-17T09:11:43.294Z,77.24
2022-10-17T09:14:22.304Z,77.38
2022-10-17T09:17:04.448Z,76.40
2022-10-17T09:19:51.583Z,76.65
2022-10-17T09:22:19.882Z,75.67
2022-10-17T09:24:50.742Z,75.53
2022-10-17T09:26:53.034Z,78.12
2022-10-17T09:28:59.443Z,76.45
2022-10-17T09:31:22.064Z,74.58
2022-10-17T09:33:55.652Z,73.98
2022-10-17T09:35:57.914Z,75.31
2022-10-17T09:38:00.055Z,74.25
2022-10-17T09:40:25.486Z,71.26
2022-10-17T09:42:48.255Z,75.76
2022-10-17T09:45:26.943Z,71.26
2022-10-17T09:48:47.823Z,68.25
2022-10-17T09:51:21.749Z,71.77
2022-10-17T09:53:56.663Z,68.77
2022-10-17T09:56:19.731Z,70.12
2022-10-17T09:58:49.062Z,66.21
2022-10-17T10:01:22.953Z,67.31
2022-10-17T10:03:46.630Z,68.97
2022-10-17T10:06:20.031Z,65.07
2022-10-17T10:09:22.741Z,63.96
2022-10-17T10:11:51.576Z,65.41
2022-10-17T10:14:21.829Z,65.24
2022-10-17T10:16:44.329Z,68.02
2022-10-17T10:19:30.448Z,66.24
2022-10-17T10:21:58.844Z,64.67
2022-10-17T10:24:21.970Z,66.55
2022-10-17T10:26:50.732Z,61.49
2022-10-17T10:29:37.132Z,58.82
2022-10-17T10:32:21.781Z,59.06
2022-10-17T10:34:54.926Z,57.73
2022-10-17T10:37:26.500Z,60.34
2022-10-17T10:39:53.736Z,59.16
2022-10-17T10:42:32.370Z,56.41
2022-10-17T10:44:57.141Z,62.13
2022-10-17T10:47:28.964Z,57.29
2022-10-17T10:49:53.069Z,60.34
2022-10-17T10:52:44.060Z,53.64
2022-10-17T10:55:47.869Z,53.72
2022-10-17T10:58:45.699Z,52.13
2022-10-17T11:01:34.541Z,52.63
2022-10-17T11:04:32.815Z,50.77
2022-10-17T11:07:06.879Z,51.73
2022-10-17T11:10:00.806Z,50.30
2022-10-17T11:12:46.398Z,50.34
2022-10-17T11:15:22.352Z,51.55
2022-10-17T11:18:07.833Z,49.94
2022-10-17T11:20:51.950Z,50.02
2022-10-17T11:23:21.741Z,51.58
2022-10-17T11:25:43.804Z,52.46
2022-10-17T11:28:14.541Z,50.54
2022-10-17T11:30:52.859Z,50.56
2022-10-17T11:33:29.164Z,50.99
2022-10-17T11:35:53.188Z,52.08
2022-10-17T11:38:36.672Z,50.52
2022-10-17T11:40:59.909Z,52.57
2022-10-17T11:43:37.085Z,51.31
2022-10-17T11:46:05.411Z,51.52
2022-10-17T11:48:39.686Z,50.80
2022-10-17T11:54:15.104Z,51.13
2022-10-17T11:56:45.805Z,50.68
2022-10-17T11:59:45.250Z,49.73
2022-10-17T12:02:18.259Z,50.23
2022-10-17T12:05:21.234Z,49.93
2022-10-17T12:08:31.216Z,49.67
2022-10-17T12:11:15.364Z,48.89
2022-10-17T12:13:50.061Z,48.75
2022-10-17T12:15:52.154Z,49.08
2022-10-17T12:18:03.544Z,48.03
2022-10-17T12:20:38.026Z,47.53
2022-10-17T12:22:49.594Z,47.42
2022-10-17T12:25:01.775Z,47.98
2022-10-17T12:27:33.562Z,47.69
2022-10-17T12:29:35.590Z,48.63
2022-10-17T12:31:37.572Z,48.23
2022-10-17T12:33:49.042Z,48.31
2022-10-17T12:35:51.714Z,49.11
2022-10-17T12:37:57.336Z,49.12
2022-10-17T12:40:01.221Z,49.87
2022-10-17T12:42:03.489Z,50.07
2022-10-17T12:44:14.445Z,49.42
2022-10-17T12:46:54.502Z,50.49
2022-10-17T12:49:01.508Z,50.69
2022-10-17T12:51:36.509Z,51.00
2022-10-17T12:53:56.990Z,51.89
2022-10-17T12:56:07.957Z,51.99
2022-10-17T12:58:14.508Z,52.50
2022-10-17T13:00:37.169Z,52.04
2022-10-17T13:02:39.308Z,53.01
2022-10-17T13:04:41.317Z,53.32
2022-10-17T13:06:48.662Z,52.93
2022-10-17T13:09:04.226Z,52.43
2022-10-17T13:11:07.620Z,53.35
2022-10-17T13:13:48.742Z,52.34
2022-10-17T13:15:53.703Z,52.59
2022-10-17T13:17:59.435Z,52.46
2022-10-17T13:20:01.866Z,51.64
2022-10-17T13:22:07.099Z,50.73
2022-10-17T13:24:31.277Z,50.16
2022-10-17T13:26:33.376Z,51.33
2022-10-17T13:28:39.151Z,50.66
2022-10-17T13:30:47.853Z,50.65
2022-10-17T13:32:51.483Z,50.03
2022-10-17T13:35:59.370Z,49.42
2022-10-17T13:38:03.297Z,50.13
2022-10-17T13:40:30.826Z,49.95
2022-10-17T13:42:41.109Z,49.45
2022-10-17T13:44:43.585Z,50.49
2022-10-17T13:46:45.870Z,50.09
2022-10-17T13:48:49.544Z,50.61
2022-10-17T13:51:03.008Z,50.25
2022-10-17T13:53:19.609Z,51.04
2022-10-17T13:55:22.449Z,51.62
2022-10-17T13:57:31.881Z,52.49
2022-10-17T13:59:41.321Z,52.65
2022-10-17T14:01:43.447Z,52.44
2022-10-17T14:03:48.954Z,52.78
2022-10-17T14:06:19.238Z,52.72
2022-10-17T14:08:51.630Z,53.38
2022-10-17T14:11:18.467Z,53.71
2022-10-17T14:13:40.813Z,54.58
2022-10-17T14:16:03.850Z,54.48
2022-10-17T14:18:35.048Z,54.48
2022-10-17T14:23:44.826Z,54.50
2022-10-17T14:26:23.212Z,54.32
2022-10-17T14:29:07.760Z,54.60
2022-10-17T14:31:35.254Z,54.42
2022-10-17T14:33:57.714Z,54.92
2022-10-17T14:36:21.163Z,55.29
2022-10-17T14:38:23.315Z,55.19
2022-10-17T14:41:04.811Z,55.69
2022-10-17T14:43:24.216Z,56.30
2022-10-17T14:45:37.647Z,56.56
2022-10-17T14:47:43.599Z,56.82
2022-10-17T14:50:28.678Z,57.35
2022-10-17T14:53:25.463Z,57.68
2022-10-17T14:55:59.770Z,57.90
2022-10-17T14:58:32.811Z,58.27
2022-10-17T15:00:59.765Z,58.56
2022-10-17T15:03:22.284Z,58.68
2022-10-17T15:05:44.961Z,58.72
2022-10-17T15:08:18.364Z,59.82
2022-10-17T15:10:43.758Z,59.31
2022-10-17T15:15:51.381Z,60.01
2022-10-17T15:18:14.781Z,59.99
2022-10-17T15:20:37.342Z,59.96
2022-10-17T15:23:01.613Z,60.72
2022-10-17T15:25:24.620Z,60.78
2022-10-17T15:27:46.998Z,60.93
2022-10-17T15:30:36.616Z,62.42
2022-10-17T15:32:59.420Z,62.08
2022-10-17T15:35:22.092Z,62.08
2022-10-17T15:37:46.719Z,63.08
2022-10-17T15:40:24.595Z,64.15
2022-10-17T15:42:47.086Z,64.76
2022-10-17T15:45:12.302Z,64.63
2022-10-17T15:47:34.726Z,65.18
2022-10-17T15:49:57.454Z,65.97
2022-10-17T15:52:19.832Z,66.14
2022-10-17T15:54:42.151Z,65.88
2022-10-17T15:57:04.514Z,66.48
2022-10-17T15:59:31.582Z,67.00
2022-10-17T16:01:53.911Z,67.39
2022-10-17T16:04:16.306Z,67.29
2022-10-17T16:06:39.155Z,68.24
2022-10-17T16:09:01.503Z,67.88
2022-10-17T16:11:38.227Z,69.29
2022-10-17T16:14:03.037Z,69.09
2022-10-17T16:16:25.400Z,69.35
2022-10-17T16:18:47.958Z,69.37
2022-10-17T16:21:15.642Z,70.47
2022-10-17T16:23:37.992Z,69.73
2022-10-17T16:26:00.276Z,69.90
2022-10-17T16:28:22.634Z,71.06
2022-10-17T16:30:46.348Z,70.17
2022-10-17T16:33:10.436Z,70.79
2022-10-17T16:35:36.513Z,70.23
2022-10-17T16:38:00.014Z,70.68
2022-10-17T16:40:22.371Z,70.83
2022-10-17T16:42:44.979Z,71.37
2022-10-17T16:45:08.113Z,70.83
2022-10-17T16:47:30.387Z,72.62
2022-10-17T16:49:52.735Z,71.38
2022-10-17T16:52:15.686Z,71.39
2022-10-17T16:54:38.128Z,71.83
2022-10-17T16:57:01.089Z,71.91
2022-10-17T16:59:24.325Z,71.95
2022-10-17T17:01:46.575Z,73.20
2022-10-17T17:04:09.498Z,72.29
2022-10-17T17:06:31.978Z,72.00
2022-10-17T17:08:55.034Z,72.17
2022-10-17T17:11:18.828Z,72.52
2022-10-17T17:13:41.470Z,72.76
2022-10-17T17:16:24.023Z,73.66
2022-10-17T17:18:46.870Z,73.36
2022-10-17T17:21:10.489Z,73.69
2022-10-17T17:23:38.014Z,73.22
2022-10-17T17:26:05.584Z,72.83
2022-10-17T17:28:28.393Z,73.06
2022-10-17T17:30:50.758Z,73.51
2022-10-17T17:33:13.102Z,72.83
2022-10-17T17:35:35.712Z,73.68
2022-10-17T17:37:58.125Z,72.86
2022-10-17T17:40:20.506Z,73.59
2022-10-17T17:42:43.082Z,72.89
2022-10-17T17:44:45.283Z,72.67
2022-10-17T17:46:48.252Z,73.60
2022-10-17T17:48:51.286Z,73.24
2022-10-17T17:50:53.419Z,73.63
2022-10-17T17:52:55.538Z,73.60
2022-10-17T17:54:57.678Z,73.09
2022-10-17T17:56:59.885Z,73.74
2022-10-17T17:59:02.589Z,73.81
2022-10-17T18:01:14.319Z,74.53
2022-10-17T18:03:17.247Z,73.64
2022-10-17T18:05:40.178Z,73.92
2022-10-17T18:08:00.717Z,73.36
2022-10-17T18:10:23.035Z,74.37
2022-10-17T18:12:45.430Z,74.23
2022-10-17T18:15:08.234Z,74.57
2022-10-17T18:17:30.612Z,73.88
2022-10-17T18:19:52.926Z,74.73
2022-10-17T18:22:15.277Z,74.38
2022-10-17T18:24:37.611Z,74.76
2022-10-17T18:27:00.082Z,74.88
2022-10-17T18:29:22.503Z,74.78
2022-10-17T18:31:44.956Z,74.22
2022-10-17T18:34:07.332Z,74.92
2022-10-17T18:36:30.548Z,74.53
2022-10-17T18:38:53.381Z,75.92
2022-10-17T18:41:18.356Z,75.65
2022-10-17T18:43:42.688Z,75.63
2022-10-17T18:46:15.635Z,75.79
2022-10-17T18:48:40.370Z,75.31
2022-10-17T18:51:04.125Z,75.66
2022-10-17T18:53:26.504Z,74.91
2022-10-17T18:55:50.761Z,75.60
2022-10-17T18:58:13.129Z,75.37
2022-10-17T19:00:35.460Z,76.11
2022-10-17T19:02:57.816Z,76.79
2022-10-17T19:05:20.160Z,75.63
2022-10-17T19:07:42.527Z,76.05
2022-10-17T19:10:05.165Z,76.17
2022-10-17T19:12:27.620Z,76.22
2022-10-17T19:14:50.941Z,76.97
2022-10-17T19:17:13.299Z,77.30
2022-10-17T19:19:36.064Z,77.03
2022-10-17T19:22:00.122Z,76.38
2022-10-17T19:24:27.053Z,76.70
2022-10-17T19:26:50.482Z,76.26
2022-10-17T19:29:17.054Z,76.87
2022-10-17T19:31:39.417Z,77.45
2022-10-17T19:34:01.836Z,77.62
2022-10-17T19:36:30.759Z,77.10
2022-10-17T19:38:56.231Z,76.94
2022-10-17T19:41:18.679Z,77.49
2022-10-17T19:43:42.133Z,77.46
2022-10-17T19:46:07.967Z,77.36
2022-10-17T19:48:32.808Z,78.01
2022-10-17T19:50:55.143Z,77.40
2022-10-17T19:53:17.841Z,77.77
2022-10-17T19:55:40.183Z,78.73
2022-10-17T19:58:03.011Z,78.44
2022-10-17T20:00:25.357Z,78.71
2022-10-17T20:02:47.697Z,78.82
2022-10-17T20:05:18.644Z,78.60
2022-10-17T20:07:41.892Z,79.44
2022-10-17T20:10:05.200Z,79.12
2022-10-17T20:12:27.608Z,80.76
2022-10-17T20:14:50.069Z,80.06
2022-10-17T20:17:12.420Z,79.66
2022-10-17T20:19:34.822Z,80.48
2022-10-17T20:21:57.186Z,80.04
2022-10-17T20:24:19.542Z,80.48
2022-10-17T20:26:42.061Z,80.99
2022-10-17T20:29:08.757Z,79.71
2022-10-17T20:31:31.349Z,80.17
2022-10-17T20:33:57.831Z,80.66
2022-10-17T20:36:23.359Z,80.22
2022-10-17T20:38:45.723Z,80.37
2022-10-17T20:41:09.553Z,80.76
2022-10-17T20:43:32.098Z,80.77
2022-10-17T20:46:03.493Z,81.48
2022-10-17T20:48:31.036Z,81.96
2022-10-17T20:50:53.676Z,81.36
2022-10-17T20:56:07.858Z,81.79
2022-10-17T20:58:30.193Z,82.10
2022-10-17T21:00:52.584Z,82.16
2022-10-17T21:03:15.002Z,82.09
2022-10-17T21:05:40.962Z,81.33
2022-10-17T21:08:03.392Z,81.52
2022-10-17T21:10:35.332Z,81.96
2022-10-17T21:12:59.663Z,81.65
2022-10-17T21:15:22.447Z,81.17
2022-10-17T21:17:44.809Z,81.35
2022-10-17T21:20:07.911Z,81.02
2022-10-17T21:22:30.569Z,80.99
2022-10-17T21:24:53.084Z,82.04
2022-10-17T21:27:17.935Z,82.30
2022-10-17T21:29:40.259Z,81.84
2022-10-17T21:32:02.601Z,81.97
2022-10-17T21:34:25.245Z,81.74
2022-10-17T21:36:48.241Z,81.32
2022-10-17T21:39:12.065Z,82.41
2022-10-17T21:41:34.437Z,82.43
2022-10-17T21:44:02.420Z,81.70
2022-10-17T21:46:24.809Z,81.27
2022-10-17T21:48:47.590Z,81.56
2022-10-17T21:51:14.163Z,82.07
2022-10-17T21:53:36.716Z,82.35
2022-10-17T21:56:00.856Z,82.15
2022-10-17T21:58:23.211Z,81.99
2022-10-17T22:00:45.611Z,82.14
2022-10-17T22:03:09.570Z,81.87
2022-10-17T22:05:31.908Z,81.61
2022-10-17T22:07:54.270Z,82.25
2022-10-17T22:10:16.626Z,81.64
2022-10-17T22:12:38.962Z,81.58
2022-10-17T22:15:01.588Z,81.90
2022-10-17T22:17:24.021Z,82.10
2022-10-17T22:19:46.364Z,82.32
2022-10-17T22:22:08.948Z,82.68
2022-10-17T22:24:31.271Z,82.22
2022-10-17T22:26:53.634Z,82.31
2022-10-17T22:29:16.076Z,82.35
2022-10-17T22:31:38.585Z,82.33
2022-10-17T22:34:00.956Z,82.80
2022-10-17T22:36:23.476Z,82.47
2022-10-17T22:38:45.859Z,82.60
2022-10-17T22:41:08.426Z,82.35
2022-10-17T22:43:30.985Z,82.83
2022-10-17T22:45:54.797Z,82.68
2022-10-17T22:48:17.191Z,83.05
2022-10-17T22:50:41.821Z,83.27
2022-10-17T22:53:04.139Z,83.67
2022-10-17T22:55:26.717Z,83.26
2022-10-17T22:57:49.062Z,83.63
2022-10-17T23:00:12.207Z,84.01
2022-10-17T23:02:34.581Z,83.80
2022-10-17T23:04:56.917Z,83.98
2022-10-17T23:07:19.315Z,83.85
2022-10-17T23:09:41.861Z,83.71
2022-10-17T23:12:04.792Z,84.56
2022-10-17T23:14:27.110Z,83.87
2022-10-17T23:16:49.441Z,84.62
2022-10-17T23:19:11.804Z,83.88
2022-10-17T23:21:34.182Z,84.53
2022-10-17T23:23:56.558Z,84.88
2022-10-17T23:26:18.938Z,84.54
2022-10-17T23:28:42.255Z,84.89
2022-10-17T23:31:16.824Z,85.54
2022-10-17T23:33:41.365Z,84.85
2022-10-17T23:36:05.526Z,84.89
2022-10-17T23:38:27.876Z,84.38
2022-10-17T23:40:50.288Z,85.18
2022-10-17T23:43:12.773Z,84.74
2022-10-17T23:45:37.235Z,85.71
2022-10-17T23:47:59.781Z,85.67
2022-10-17T23:50:22.163Z,85.12
2022-10-17T23:52:44.604Z,85.38
2022-10-17T23:55:08.301Z,85.84
2022-10-17T23:57:30.883Z,85.88
2022-10-17T23:59:53.547Z,85.33
